sensor_id;sensor_type;location;lat;lon;timestamp;pressure;altitude;pressure_sealevel;temperature;humidity
30302;BME280;17111;52.130;5.028;2024-01-30T00:01:56;102673.47;;;15.63;48.77
30302;BME280;17111;52.130;5.028;2024-01-30T00:04:23;102669.06;;;15.62;48.83
30302;BME280;17111;52.130;5.028;2024-01-30T00:06:51;102667.38;;;15.61;48.36
30302;BME280;17111;52.130;5.028;2024-01-30T00:09:19;102668.22;;;15.62;48.22
30302;BME280;17111;52.130;5.028;2024-01-30T00:11:46;102661.16;;;15.61;48.90
30302;BME280;17111;52.130;5.028;2024-01-30T00:14:13;102657.63;;;15.60;48.18
30302;BME280;17111;52.130;5.028;2024-01-30T00:16:40;102662.09;;;15.60;48.90
30302;BME280;17111;52.130;5.028;2024-01-30T00:19:07;102661.22;;;15.59;49.25
30302;BME280;17111;52.130;5.028;2024-01-30T00:21:34;102657.72;;;15.59;48.16
30302;BME280;17111;52.130;5.028;2024-01-30T00:24:01;102658.56;;;15.59;47.94
30302;BME280;17111;52.130;5.028;2024-01-30T00:26:28;102660.38;;;15.59;49.02
30302;BME280;17111;52.130;5.028;2024-01-30T00:28:54;102654.97;;;15.60;48.32
30302;BME280;17111;52.130;5.028;2024-01-30T00:31:21;102653.81;;;15.64;48.20
30302;BME280;17111;52.130;5.028;2024-01-30T00:33:47;102662.25;;;15.72;47.92
30302;BME280;17111;52.130;5.028;2024-01-30T00:36:14;102662.66;;;15.81;48.90
30302;BME280;17111;52.130;5.028;2024-01-30T00:38:41;102662.19;;;15.88;48.55
30302;BME280;17111;52.130;5.028;2024-01-30T00:41:08;102665.31;;;15.95;48.17
30302;BME280;17111;52.130;5.028;2024-01-30T00:43:36;102655.97;;;16.02;47.50
30302;BME280;17111;52.130;5.028;2024-01-30T00:46:02;102654.81;;;16.06;48.34
30302;BME280;17111;52.130;5.028;2024-01-30T00:48:29;102656.34;;;16.10;47.49
30302;BME280;17111;52.130;5.028;2024-01-30T00:50:56;102654.31;;;16.14;47.50
30302;BME280;17111;52.130;5.028;2024-01-30T00:53:23;102664.91;;;16.15;47.85
30302;BME280;17111;52.130;5.028;2024-01-30T00:55:49;102659.50;;;16.17;47.91
30302;BME280;17111;52.130;5.028;2024-01-30T00:58:16;102651.34;;;16.18;48.13
30302;BME280;17111;52.130;5.028;2024-01-30T01:00:43;102645.81;;;16.21;47.81
30302;BME280;17111;52.130;5.028;2024-01-30T01:03:09;102636.94;;;16.21;48.18
30302;BME280;17111;52.130;5.028;2024-01-30T01:05:36;102623.56;;;16.21;47.13
30302;BME280;17111;52.130;5.028;2024-01-30T01:08:03;102631.47;;;16.22;47.95
30302;BME280;17111;52.130;5.028;2024-01-30T01:10:30;102635.00;;;16.23;47.76
30302;BME280;17111;52.130;5.028;2024-01-30T01:12:56;102644.00;;;16.22;47.14
30302;BME280;17111;52.130;5.028;2024-01-30T01:15:24;102642.19;;;16.22;46.98
30302;BME280;17111;52.130;5.028;2024-01-30T01:17:55;102637.69;;;16.23;47.07
30302;BME280;17111;52.130;5.028;2024-01-30T01:20:22;102635.00;;;16.23;47.57
30302;BME280;17111;52.130;5.028;2024-01-30T01:22:48;102643.03;;;16.23;47.82
30302;BME280;17111;52.130;5.028;2024-01-30T01:25:15;102649.34;;;16.22;47.51
30302;BME280;17111;52.130;5.028;2024-01-30T01:27:42;102643.03;;;16.23;46.76
30302;BME280;17111;52.130;5.028;2024-01-30T01:30:10;102640.47;;;16.21;46.93
30302;BME280;17111;52.130;5.028;2024-01-30T01:32:38;102640.53;;;16.20;47.02
30302;BME280;17111;52.130;5.028;2024-01-30T01:35:05;102640.53;;;16.20;47.71
30302;BME280;17111;52.130;5.028;2024-01-30T01:37:34;102630.72;;;16.20;47.81
30302;BME280;17111;52.130;5.028;2024-01-30T01:40:01;102630.81;;;16.19;46.91
30302;BME280;17111;52.130;5.028;2024-01-30T01:42:27;102619.25;;;16.18;46.80
30302;BME280;17111;52.130;5.028;2024-01-30T01:44:54;102627.38;;;16.17;47.82
30302;BME280;17111;52.130;5.028;2024-01-30T01:47:21;102623.84;;;16.16;47.67
30302;BME280;17111;52.130;5.028;2024-01-30T01:49:47;102636.34;;;16.16;47.04
30302;BME280;17111;52.130;5.028;2024-01-30T01:52:15;102618.59;;;16.15;47.54
30302;BME280;17111;52.130;5.028;2024-01-30T01:54:42;102628.44;;;16.14;47.21
30302;BME280;17111;52.130;5.028;2024-01-30T01:57:09;102628.53;;;16.13;47.71
30302;BME280;17111;52.130;5.028;2024-01-30T01:59:36;102629.59;;;16.10;47.17
30302;BME280;17111;52.130;5.028;2024-01-30T02:02:03;102619.06;;;16.07;47.31
30302;BME280;17111;52.130;5.028;2024-01-30T02:04:31;102623.69;;;16.05;47.99
30302;BME280;17111;52.130;5.028;2024-01-30T02:06:58;102618.63;;;16.00;48.36
30302;BME280;17111;52.130;5.028;2024-01-30T02:09:25;102627.78;;;15.96;47.54
30302;BME280;17111;52.130;5.028;2024-01-30T02:11:51;102625.38;;;15.92;48.38
30302;BME280;17111;52.130;5.028;2024-01-30T02:14:18;102630.09;;;15.88;47.56
30302;BME280;17111;52.130;5.028;2024-01-30T02:16:45;102629.31;;;15.86;48.43
30302;BME280;17111;52.130;5.028;2024-01-30T02:19:11;102639.16;;;15.86;47.79
30302;BME280;17111;52.130;5.028;2024-01-30T02:21:38;102637.22;;;15.88;48.66
30302;BME280;17111;52.130;5.028;2024-01-30T02:24:05;102638.84;;;15.90;47.52
30302;BME280;17111;52.130;5.028;2024-01-30T02:26:32;102626.84;;;15.97;48.38
30302;BME280;17111;52.130;5.028;2024-01-30T02:28:59;102613.84;;;16.06;47.73
30302;BME280;17111;52.130;5.028;2024-01-30T02:31:25;102614.31;;;16.12;47.43
30302;BME280;17111;52.130;5.028;2024-01-30T02:33:52;102591.66;;;16.18;46.97
30302;BME280;17111;52.130;5.028;2024-01-30T02:36:19;102611.91;;;16.22;47.71
30302;BME280;17111;52.130;5.028;2024-01-30T02:38:46;102601.00;;;16.25;47.02
30302;BME280;17111;52.130;5.028;2024-01-30T02:41:13;102603.47;;;16.28;47.14
30302;BME280;17111;52.130;5.028;2024-01-30T02:43:39;102601.56;;;16.30;47.01
30302;BME280;17111;52.130;5.028;2024-01-30T02:46:06;102600.50;;;16.33;46.80
30302;BME280;17111;52.130;5.028;2024-01-30T02:48:33;102605.75;;;16.34;47.91
30302;BME280;17111;52.130;5.028;2024-01-30T02:51:00;102605.63;;;16.36;47.45
30302;BME280;17111;52.130;5.028;2024-01-30T02:53:26;102604.78;;;16.35;46.78
30302;BME280;17111;52.130;5.028;2024-01-30T02:55:53;102608.44;;;16.34;46.81
30302;BME280;17111;52.130;5.028;2024-01-30T02:58:19;102610.13;;;16.35;47.69
30302;BME280;17111;52.130;5.028;2024-01-30T03:00:46;102602.22;;;16.34;47.56
30302;BME280;17111;52.130;5.028;2024-01-30T03:03:13;102595.16;;;16.33;47.79
30302;BME280;17111;52.130;5.028;2024-01-30T03:05:40;102595.16;;;16.33;47.29
30302;BME280;17111;52.130;5.028;2024-01-30T03:08:06;102582.72;;;16.32;46.87
30302;BME280;17111;52.130;5.028;2024-01-30T03:10:33;102584.53;;;16.31;46.69
30302;BME280;17111;52.130;5.028;2024-01-30T03:13:00;102586.34;;;16.31;47.22
30302;BME280;17111;52.130;5.028;2024-01-30T03:15:26;102585.50;;;16.30;47.31
30302;BME280;17111;52.130;5.028;2024-01-30T03:17:53;102582.94;;;16.28;47.77
30302;BME280;17111;52.130;5.028;2024-01-30T03:20:20;102577.59;;;16.28;47.47
30302;BME280;17111;52.130;5.028;2024-01-30T03:22:47;102575.84;;;16.27;46.59
30302;BME280;17111;52.130;5.028;2024-01-30T03:25:14;102571.47;;;16.26;47.13
30302;BME280;17111;52.130;5.028;2024-01-30T03:27:40;102573.16;;;16.27;47.84
30302;BME280;17111;52.130;5.028;2024-01-30T03:30:07;102559.91;;;16.26;46.94
30302;BME280;17111;52.130;5.028;2024-01-30T03:32:34;102549.19;;;16.26;47.09
30302;BME280;17111;52.130;5.028;2024-01-30T03:35:01;102549.19;;;16.26;47.65
30302;BME280;17111;52.130;5.028;2024-01-30T03:37:28;102551.88;;;16.26;47.50
30302;BME280;17111;52.130;5.028;2024-01-30T03:39:54;102554.56;;;16.26;47.19
30302;BME280;17111;52.130;5.028;2024-01-30T03:42:21;102563.53;;;16.25;47.59
30302;BME280;17111;52.130;5.028;2024-01-30T03:44:48;102570.59;;;16.26;47.08
30302;BME280;17111;52.130;5.028;2024-01-30T03:47:18;102572.31;;;16.27;46.99
30302;BME280;17111;52.130;5.028;2024-01-30T03:49:45;102572.31;;;16.27;47.92
30302;BME280;17111;52.130;5.028;2024-01-30T03:52:11;102563.44;;;16.26;47.38
30302;BME280;17111;52.130;5.028;2024-01-30T03:54:38;102563.44;;;16.26;47.66
30302;BME280;17111;52.130;5.028;2024-01-30T03:57:05;102570.59;;;16.26;47.78
30302;BME280;17111;52.130;5.028;2024-01-30T03:59:32;102569.75;;;16.25;47.52
30302;BME280;17111;52.130;5.028;2024-01-30T04:01:59;102567.06;;;16.25;46.84
30302;BME280;17111;52.130;5.028;2024-01-30T04:04:27;102571.56;;;16.25;47.15
30302;BME280;17111;52.130;5.028;2024-01-30T04:06:53;102564.47;;;16.24;46.65
30302;BME280;17111;52.130;5.028;2024-01-30T04:09:20;102567.16;;;16.24;47.06
30302;BME280;17111;52.130;5.028;2024-01-30T04:11:47;102565.44;;;16.23;47.42
30302;BME280;17111;52.130;5.028;2024-01-30T04:14:13;102572.63;;;16.22;46.96
30302;BME280;17111;52.130;5.028;2024-01-30T04:16:40;102562.78;;;16.23;47.64
30302;BME280;17111;52.130;5.028;2024-01-30T04:19:06;102563.84;;;16.20;46.75
30302;BME280;17111;52.130;5.028;2024-01-30T04:21:33;102556.69;;;16.21;46.88
30302;BME280;17111;52.130;5.028;2024-01-30T04:24:00;102547.78;;;16.20;47.12
30302;BME280;17111;52.130;5.028;2024-01-30T04:26:26;102548.66;;;16.21;47.56
30302;BME280;17111;52.130;5.028;2024-01-30T04:28:53;102538.63;;;16.24;47.13
30302;BME280;17111;52.130;5.028;2024-01-30T04:31:20;102541.84;;;16.29;47.39
30302;BME280;17111;52.130;5.028;2024-01-30T04:33:47;102532.53;;;16.35;47.18
30302;BME280;17111;52.130;5.028;2024-01-30T04:36:13;102540.25;;;16.40;47.31
30302;BME280;17111;52.130;5.028;2024-01-30T04:38:40;102532.88;;;16.43;47.51
30302;BME280;17111;52.130;5.028;2024-01-30T04:41:07;102539.88;;;16.46;46.64
30302;BME280;17111;52.130;5.028;2024-01-30T04:43:34;102543.28;;;16.48;47.64
30302;BME280;17111;52.130;5.028;2024-01-30T04:46:00;102544.06;;;16.50;47.16
30302;BME280;17111;52.130;5.028;2024-01-30T04:48:27;102534.19;;;16.50;47.41
30302;BME280;17111;52.130;5.028;2024-01-30T04:50:54;102533.22;;;16.51;46.40
30302;BME280;17111;52.130;5.028;2024-01-30T04:53:22;102534.09;;;16.52;47.30
30302;BME280;17111;52.130;5.028;2024-01-30T04:55:49;102537.66;;;16.52;47.36
30302;BME280;17111;52.130;5.028;2024-01-30T04:58:15;102543.09;;;16.51;47.30
30302;BME280;17111;52.130;5.028;2024-01-30T05:00:42;102531.53;;;16.50;46.62
30302;BME280;17111;52.130;5.028;2024-01-30T05:03:09;102527.13;;;16.49;46.38
30302;BME280;17111;52.130;5.028;2024-01-30T05:05:36;102528.09;;;16.48;46.96
30302;BME280;17111;52.130;5.028;2024-01-30T05:08:03;102530.00;;;16.46;47.47
30302;BME280;17111;52.130;5.028;2024-01-30T05:10:29;102532.81;;;16.45;46.86
30302;BME280;17111;52.130;5.028;2024-01-30T05:12:56;102528.38;;;16.44;47.29
30302;BME280;17111;52.130;5.028;2024-01-30T05:15:22;102521.31;;;16.43;46.77
30302;BME280;17111;52.130;5.028;2024-01-30T05:17:49;102529.47;;;16.41;47.23
30302;BME280;17111;52.130;5.028;2024-01-30T05:20:16;102529.47;;;16.41;47.31
30302;BME280;17111;52.130;5.028;2024-01-30T05:22:43;102520.66;;;16.39;47.07
30302;BME280;17111;52.130;5.028;2024-01-30T05:25:14;102523.47;;;16.38;47.01
30302;BME280;17111;52.130;5.028;2024-01-30T05:27:41;102531.47;;;16.38;46.95
30302;BME280;17111;52.130;5.028;2024-01-30T05:30:08;102531.59;;;16.36;47.25
30302;BME280;17111;52.130;5.028;2024-01-30T05:32:35;102535.13;;;16.37;47.71
30302;BME280;17111;52.130;5.028;2024-01-30T05:35:02;102532.53;;;16.35;47.28
30302;BME280;17111;52.130;5.028;2024-01-30T05:37:29;102529.97;;;16.34;46.99
30302;BME280;17111;52.130;5.028;2024-01-30T05:39:56;102538.00;;;16.34;47.43
30302;BME280;17111;52.130;5.028;2024-01-30T05:42:23;102523.84;;;16.32;47.67
30302;BME280;17111;52.130;5.028;2024-01-30T05:44:49;102528.34;;;16.31;46.71
30302;BME280;17111;52.130;5.028;2024-01-30T05:47:16;102538.31;;;16.29;47.15
30302;BME280;17111;52.130;5.028;2024-01-30T05:49:42;102534.78;;;16.28;46.87
30302;BME280;17111;52.130;5.028;2024-01-30T05:52:09;102538.38;;;16.27;47.30
30302;BME280;17111;52.130;5.028;2024-01-30T05:54:36;102531.31;;;16.26;47.54
30302;BME280;17111;52.130;5.028;2024-01-30T05:57:03;102529.63;;;16.25;47.23
30302;BME280;17111;52.130;5.028;2024-01-30T05:59:29;102532.28;;;16.25;47.43
30302;BME280;17111;52.130;5.028;2024-01-30T06:01:56;102535.94;;;16.24;47.03
30302;BME280;17111;52.130;5.028;2024-01-30T06:04:23;102542.22;;;16.23;47.95
30302;BME280;17111;52.130;5.028;2024-01-30T06:06:50;102536.88;;;16.23;47.58
30302;BME280;17111;52.130;5.028;2024-01-30T06:09:17;102536.13;;;16.21;47.08
30302;BME280;17111;52.130;5.028;2024-01-30T06:11:43;102538.81;;;16.21;47.57
30302;BME280;17111;52.130;5.028;2024-01-30T06:14:10;102542.44;;;16.20;47.59
30302;BME280;17111;52.130;5.028;2024-01-30T06:16:37;102543.31;;;16.21;47.73
30302;BME280;17111;52.130;5.028;2024-01-30T06:19:03;102532.78;;;16.18;47.47
30302;BME280;17111;52.130;5.028;2024-01-30T06:21:30;102536.13;;;16.21;46.93
30302;BME280;17111;52.130;5.028;2024-01-30T06:23:58;102539.34;;;16.26;47.77
30302;BME280;17111;52.130;5.028;2024-01-30T06:26:24;102543.44;;;16.32;47.54
30302;BME280;17111;52.130;5.028;2024-01-30T06:28:51;102547.53;;;16.38;46.95
30302;BME280;17111;52.130;5.028;2024-01-30T06:31:18;102555.16;;;16.44;47.14
30302;BME280;17111;52.130;5.028;2024-01-30T06:33:47;102549.59;;;16.47;46.90
30302;BME280;17111;52.130;5.028;2024-01-30T06:36:13;102552.06;;;16.50;47.63
30302;BME280;17111;52.130;5.028;2024-01-30T06:38:41;102556.28;;;16.54;47.00
30302;BME280;17111;52.130;5.028;2024-01-30T06:41:07;102548.13;;;16.56;47.25
30302;BME280;17111;52.130;5.028;2024-01-30T06:43:34;102540.00;;;16.57;46.38
30302;BME280;17111;52.130;5.028;2024-01-30T06:46:01;102550.72;;;16.57;47.07
30302;BME280;17111;52.130;5.028;2024-01-30T06:48:27;102550.72;;;16.57;46.85
30302;BME280;17111;52.130;5.028;2024-01-30T06:50:54;102552.53;;;16.57;46.78
30302;BME280;17111;52.130;5.028;2024-01-30T06:53:21;102551.56;;;16.58;47.40
30302;BME280;17111;52.130;5.028;2024-01-30T06:55:47;102546.31;;;16.56;46.74
30302;BME280;17111;52.130;5.028;2024-01-30T06:58:14;102543.63;;;16.56;46.63
30302;BME280;17111;52.130;5.028;2024-01-30T07:00:41;102554.44;;;16.54;47.55
30302;BME280;17111;52.130;5.028;2024-01-30T07:03:08;102553.59;;;16.54;46.92
30302;BME280;17111;52.130;5.028;2024-01-30T07:05:34;102552.81;;;16.52;47.46
30302;BME280;17111;52.130;5.028;2024-01-30T07:08:01;102551.88;;;16.53;47.36
30302;BME280;17111;52.130;5.028;2024-01-30T07:10:28;102549.41;;;16.50;46.98
30302;BME280;17111;52.130;5.028;2024-01-30T07:12:55;102549.41;;;16.50;47.34
30302;BME280;17111;52.130;5.028;2024-01-30T07:15:21;102556.56;;;16.49;47.33
30302;BME280;17111;52.130;5.028;2024-01-30T07:17:48;102550.47;;;16.47;47.92
30302;BME280;17111;52.130;5.028;2024-01-30T07:20:15;102560.31;;;16.47;47.73
30302;BME280;17111;52.130;5.028;2024-01-30T07:22:43;102566.63;;;16.46;46.77
30302;BME280;17111;52.130;5.028;2024-01-30T07:25:10;102563.19;;;16.44;47.10
30302;BME280;17111;52.130;5.028;2024-01-30T07:27:37;102565.00;;;16.43;47.63
30302;BME280;17111;52.130;5.028;2024-01-30T07:30:04;102564.16;;;16.43;47.22
30302;BME280;17111;52.130;5.028;2024-01-30T07:32:31;102567.91;;;16.40;47.80
30302;BME280;17111;52.130;5.028;2024-01-30T07:34:58;102575.81;;;16.42;47.40
30302;BME280;17111;52.130;5.028;2024-01-30T07:37:34;102570.56;;;16.40;47.63
30302;BME280;17111;52.130;5.028;2024-01-30T07:40:02;102577.84;;;16.38;47.23
30302;BME280;17111;52.130;5.028;2024-01-30T07:42:29;102581.47;;;16.37;47.94
30302;BME280;17111;52.130;5.028;2024-01-30T07:44:56;102578.81;;;16.37;47.78
30302;BME280;17111;52.130;5.028;2024-01-30T07:47:22;102578.88;;;16.36;47.99
30302;BME280;17111;52.130;5.028;2024-01-30T07:49:49;102588.84;;;16.34;48.21
30302;BME280;17111;52.130;5.028;2024-01-30T07:52:16;102588.84;;;16.34;47.33
30302;BME280;17111;52.130;5.028;2024-01-30T07:54:49;102582.72;;;16.32;47.36
30302;BME280;17111;52.130;5.028;2024-01-30T07:57:16;102596.09;;;16.32;47.52
30302;BME280;17111;52.130;5.028;2024-01-30T07:59:44;102594.28;;;16.32;47.87
30302;BME280;17111;52.130;5.028;2024-01-30T08:02:12;102584.53;;;16.31;48.26
30302;BME280;17111;52.130;5.028;2024-01-30T08:04:39;102587.31;;;16.29;47.10
30302;BME280;17111;52.130;5.028;2024-01-30T08:07:06;102587.41;;;16.28;48.42
30302;BME280;17111;52.130;5.028;2024-01-30T08:09:33;102584.72;;;16.28;47.43
30302;BME280;17111;52.130;5.028;2024-01-30T08:12:00;102594.56;;;16.27;48.21
30302;BME280;17111;52.130;5.028;2024-01-30T08:14:26;102606.25;;;16.26;48.34
30302;BME280;17111;52.130;5.028;2024-01-30T08:16:53;102596.50;;;16.25;48.09
30302;BME280;17111;52.130;5.028;2024-01-30T08:19:19;102592.97;;;16.25;48.38
30302;BME280;17111;52.130;5.028;2024-01-30T08:21:46;102592.97;;;16.25;48.45
30302;BME280;17111;52.130;5.028;2024-01-30T08:24:13;102596.59;;;16.24;48.10
30302;BME280;17111;52.130;5.028;2024-01-30T08:26:39;102599.38;;;16.22;47.52
30302;BME280;17111;52.130;5.028;2024-01-30T08:29:06;102603.75;;;16.23;47.52
30302;BME280;17111;52.130;5.028;2024-01-30T08:31:33;102603.00;;;16.21;48.01
30302;BME280;17111;52.130;5.028;2024-01-30T08:34:00;102605.56;;;16.23;47.39
30302;BME280;17111;52.130;5.028;2024-01-30T08:36:27;102600.34;;;16.21;48.28
30302;BME280;17111;52.130;5.028;2024-01-30T08:38:54;102604.84;;;16.21;48.30
30302;BME280;17111;52.130;5.028;2024-01-30T08:41:26;102603.97;;;16.20;48.14
30302;BME280;17111;52.130;5.028;2024-01-30T08:43:53;102605.75;;;16.20;47.65
30302;BME280;17111;52.130;5.028;2024-01-30T08:46:20;102611.22;;;16.18;48.37
30302;BME280;17111;52.130;5.028;2024-01-30T08:48:47;102612.94;;;16.19;47.55
30302;BME280;17111;52.130;5.028;2024-01-30T08:51:14;102613.91;;;16.18;48.70
30302;BME280;17111;52.130;5.028;2024-01-30T08:53:42;102609.59;;;16.16;47.80
30302;BME280;17111;52.130;5.028;2024-01-30T08:56:09;102615.84;;;16.16;47.67
30302;BME280;17111;52.130;5.028;2024-01-30T08:58:36;102615.91;;;16.15;48.52
30302;BME280;17111;52.130;5.028;2024-01-30T09:01:03;102620.53;;;16.13;48.13
30302;BME280;17111;52.130;5.028;2024-01-30T09:03:32;102621.44;;;16.12;48.84
30302;BME280;17111;52.130;5.028;2024-01-30T09:05:58;102618.03;;;16.10;48.83
30302;BME280;17111;52.130;5.028;2024-01-30T09:08:25;102619.19;;;16.06;48.99
30302;BME280;17111;52.130;5.028;2024-01-30T09:10:51;102622.91;;;16.03;48.50
30302;BME280;17111;52.130;5.028;2024-01-30T09:13:18;102631.78;;;16.03;48.21
30302;BME280;17111;52.130;5.028;2024-01-30T09:15:45;102619.19;;;16.06;48.42
30302;BME280;17111;52.130;5.028;2024-01-30T09:18:12;102631.28;;;16.11;48.22
30302;BME280;17111;52.130;5.028;2024-01-30T09:20:39;102631.78;;;16.18;48.12
30302;BME280;17111;52.130;5.028;2024-01-30T09:23:05;102631.28;;;16.25;48.26
30302;BME280;17111;52.130;5.028;2024-01-30T09:25:32;102630.88;;;16.32;48.58
30302;BME280;17111;52.130;5.028;2024-01-30T09:27:59;102627.94;;;16.36;48.07
30302;BME280;17111;52.130;5.028;2024-01-30T09:30:25;102636.59;;;16.40;48.07
30302;BME280;17111;52.130;5.028;2024-01-30T09:32:52;102630.97;;;16.44;47.74
30302;BME280;17111;52.130;5.028;2024-01-30T09:35:19;102630.75;;;16.47;47.73
30302;BME280;17111;52.130;5.028;2024-01-30T09:37:45;102640.41;;;16.50;47.67
30302;BME280;17111;52.130;5.028;2024-01-30T09:40:12;102643.75;;;16.53;48.18
30302;BME280;17111;52.130;5.028;2024-01-30T09:42:40;102642.66;;;16.56;47.21
30302;BME280;17111;52.130;5.028;2024-01-30T09:45:11;102642.59;;;16.58;48.02
30302;BME280;17111;52.130;5.028;2024-01-30T09:47:42;102646.97;;;16.59;48.27
30302;BME280;17111;52.130;5.028;2024-01-30T09:50:14;102662.00;;;16.61;47.84
30302;BME280;17111;52.130;5.028;2024-01-30T09:52:45;102676.22;;;16.62;48.42
30302;BME280;17111;52.130;5.028;2024-01-30T09:55:12;102656.53;;;16.63;47.47
30302;BME280;17111;52.130;5.028;2024-01-30T09:57:39;102654.69;;;16.63;47.46
30302;BME280;17111;52.130;5.028;2024-01-30T10:00:06;102662.72;;;16.63;47.64
30302;BME280;17111;52.130;5.028;2024-01-30T10:02:36;102657.28;;;16.65;47.64
30302;BME280;17111;52.130;5.028;2024-01-30T10:05:03;102662.53;;;16.66;47.50
30302;BME280;17111;52.130;5.028;2024-01-30T10:07:30;102669.59;;;16.67;47.56
30302;BME280;17111;52.130;5.028;2024-01-30T10:09:57;102670.47;;;16.68;47.75
30302;BME280;17111;52.130;5.028;2024-01-30T10:12:29;102681.09;;;16.69;47.85
30302;BME280;17111;52.130;5.028;2024-01-30T10:14:56;102663.31;;;16.68;47.83
30302;BME280;17111;52.130;5.028;2024-01-30T10:17:25;102654.41;;;16.68;47.52
30302;BME280;17111;52.130;5.028;2024-01-30T10:19:59;102655.28;;;16.68;47.31
30302;BME280;17111;52.130;5.028;2024-01-30T10:22:27;102668.66;;;16.68;47.72
30302;BME280;17111;52.130;5.028;2024-01-30T10:24:54;102672.28;;;16.67;47.87
30302;BME280;17111;52.130;5.028;2024-01-30T10:27:27;102664.25;;;16.67;47.71
30302;BME280;17111;52.130;5.028;2024-01-30T10:29:56;102679.47;;;16.67;47.71
30302;BME280;17111;52.130;5.028;2024-01-30T10:32:23;102676.78;;;16.67;47.47
30302;BME280;17111;52.130;5.028;2024-01-30T10:34:50;102677.63;;;16.67;48.32
30302;BME280;17111;52.130;5.028;2024-01-30T10:37:18;102683.00;;;16.67;47.81
30302;BME280;17111;52.130;5.028;2024-01-30T10:39:45;102676.69;;;16.68;47.90
30302;BME280;17111;52.130;5.028;2024-01-30T10:42:14;102679.38;;;16.68;47.56
30302;BME280;17111;52.130;5.028;2024-01-30T10:44:57;102680.31;;;16.67;47.80
30302;BME280;17111;52.130;5.028;2024-01-30T10:47:27;102694.38;;;16.71;47.53
30302;BME280;17111;52.130;5.028;2024-01-30T10:49:56;102689.13;;;16.69;47.91
30302;BME280;17111;52.130;5.028;2024-01-30T10:52:24;102698.88;;;16.70;48.25
30302;BME280;17111;52.130;5.028;2024-01-30T10:54:55;102706.91;;;16.70;48.21
30302;BME280;17111;52.130;5.028;2024-01-30T10:57:23;102705.19;;;16.69;47.60
30302;BME280;17111;52.130;5.028;2024-01-30T10:59:56;102707.00;;;16.69;47.34
30302;BME280;17111;52.130;5.028;2024-01-30T11:02:23;102712.44;;;16.67;47.36
30302;BME280;17111;52.130;5.028;2024-01-30T11:04:56;102705.38;;;16.66;47.79
30302;BME280;17111;52.130;5.028;2024-01-30T11:07:25;102715.22;;;16.66;47.50
30302;BME280;17111;52.130;5.028;2024-01-30T11:12:37;102713.78;;;16.60;47.39
30302;BME280;17111;52.130;5.028;2024-01-30T11:20:22;102718.59;;;16.55;47.39
30302;BME280;17111;52.130;5.028;2024-01-30T11:22:55;102722.22;;;16.54;47.35
30302;BME280;17111;52.130;5.028;2024-01-30T11:25:23;102717.00;;;16.52;47.52
30302;BME280;17111;52.130;5.028;2024-01-30T11:27:52;102732.16;;;16.52;48.06
30302;BME280;17111;52.130;5.028;2024-01-30T11:30:25;102719.00;;;16.49;47.32
30302;BME280;17111;52.130;5.028;2024-01-30T11:35:39;102718.22;;;16.47;48.07
30302;BME280;17111;52.130;5.028;2024-01-30T11:38:14;102714.78;;;16.45;47.73
30302;BME280;17111;52.130;5.028;2024-01-30T11:40:41;102718.41;;;16.44;48.57
30302;BME280;17111;52.130;5.028;2024-01-30T11:43:08;102730.94;;;16.43;47.80
30302;BME280;17111;52.130;5.028;2024-01-30T11:45:36;102730.19;;;16.41;48.01
30302;BME280;17111;52.130;5.028;2024-01-30T11:48:03;102733.03;;;16.38;47.80
30302;BME280;17111;52.130;5.028;2024-01-30T11:50:32;102734.97;;;16.36;48.25
30302;BME280;17111;52.130;5.028;2024-01-30T11:53:00;102736.75;;;16.36;48.60
30302;BME280;17111;52.130;5.028;2024-01-30T11:55:29;102740.59;;;16.32;47.78
30302;BME280;17111;52.130;5.028;2024-01-30T11:58:01;102735.47;;;16.28;48.86
30302;BME280;17111;52.130;5.028;2024-01-30T12:00:28;102740.03;;;16.26;48.66
30302;BME280;17111;52.130;5.028;2024-01-30T12:02:57;102747.31;;;16.24;47.98
30302;BME280;17111;52.130;5.028;2024-01-30T12:05:25;102744.81;;;16.21;48.20
30302;BME280;17111;52.130;5.028;2024-01-30T12:07:52;102753.03;;;16.18;48.33
30302;BME280;17111;52.130;5.028;2024-01-30T12:10:21;102747.78;;;16.17;48.00
30302;BME280;17111;52.130;5.028;2024-01-30T12:12:51;102753.13;;;16.17;49.04
30302;BME280;17111;52.130;5.028;2024-01-30T12:15:18;102757.50;;;16.18;48.43
30302;BME280;17111;52.130;5.028;2024-01-30T12:17:45;102758.56;;;16.15;48.32
30302;BME280;17111;52.130;5.028;2024-01-30T12:20:13;102741.75;;;16.13;48.48
30302;BME280;17111;52.130;5.028;2024-01-30T12:22:44;102755.13;;;16.13;49.17
30302;BME280;17111;52.130;5.028;2024-01-30T12:25:12;102749.78;;;16.13;48.92
30302;BME280;17111;52.130;5.028;2024-01-30T12:27:43;102752.53;;;16.12;48.96
30302;BME280;17111;52.130;5.028;2024-01-30T12:30:12;102755.97;;;16.14;48.94
30302;BME280;17111;52.130;5.028;2024-01-30T12:32:42;102760.47;;;16.13;48.05
30302;BME280;17111;52.130;5.028;2024-01-30T12:35:13;102753.31;;;16.14;48.89
30302;BME280;17111;52.130;5.028;2024-01-30T12:37:41;102751.66;;;16.11;48.21
30302;BME280;17111;52.130;5.028;2024-01-30T12:40:09;102757.97;;;16.10;49.15
30302;BME280;17111;52.130;5.028;2024-01-30T12:42:37;102775.97;;;16.08;48.27
30302;BME280;17111;52.130;5.028;2024-01-30T12:45:04;102768.88;;;16.07;48.31
30302;BME280;17111;52.130;5.028;2024-01-30T12:47:31;102767.94;;;16.08;49.23
30302;BME280;17111;52.130;5.028;2024-01-30T12:49:58;102766.28;;;16.06;48.65
30302;BME280;17111;52.130;5.028;2024-01-30T12:52:25;102776.13;;;16.05;48.83
30302;BME280;17111;52.130;5.028;2024-01-30T12:54:52;102777.94;;;16.04;48.49
30302;BME280;17111;52.130;5.028;2024-01-30T12:57:19;102779.00;;;16.02;48.86
30302;BME280;17111;52.130;5.028;2024-01-30T12:59:47;102763.97;;;15.99;49.25
30302;BME280;17111;52.130;5.028;2024-01-30T13:02:13;102772.84;;;16.00;49.02